sensor_id;sensor_type;location;lat;lon;timestamp;P1;durP1;ratioP1;P2;durP2;ratioP2
75926;SDS011;64605;48.296;16.416;2022-12-18T00:01:14;21.95;;;13.38;;
75926;SDS011;64605;48.296;16.416;2022-12-18T00:03:45;21.55;;;12.35;;
75926;SDS011;64605;48.296;16.416;2022-12-18T00:06:11;19.52;;;11.70;;
75926;SDS011;64605;48.296;16.416;2022-12-18T00:08:38;20.45;;;12.82;;
75926;SDS011;64605;48.296;16.416;2022-12-18T00:11:08;21.35;;;13.95;;
75926;SDS011;64605;48.296;16.416;2022-12-18T00:13:38;20.40;;;12.35;;
75926;SDS011;64605;48.296;16.416;2022-12-18T00:16:05;22.70;;;13.27;;
75926;SDS011;64605;48.296;16.416;2022-12-18T00:18:33;20.10;;;11.93;;
75926;SDS011;64605;48.296;16.416;2022-12-18T00:20:59;21.35;;;12.90;;
75926;SDS011;64605;48.296;16.416;2022-12-18T00:23:30;22.77;;;12.48;;
75926;SDS011;64605;48.296;16.416;2022-12-18T00:26:00;19.55;;;12.98;;
75926;SDS011;64605;48.296;16.416;2022-12-18T00:28:27;19.65;;;11.93;;
75926;SDS011;64605;48.296;16.416;2022-12-18T00:31:02;20.70;;;12.20;;
75926;SDS011;64605;48.296;16.416;2022-12-18T00:33:33;24.85;;;14.13;;
75926;SDS011;64605;48.296;16.416;2022-12-18T00:36:07;22.48;;;13.57;;
75926;SDS011;64605;48.296;16.416;2022-12-18T00:38:43;25.55;;;14.70;;
75926;SDS011;64605;48.296;16.416;2022-12-18T00:41:10;20.10;;;12.48;;
75926;SDS011;64605;48.296;16.416;2022-12-18T00:43:37;22.83;;;13.57;;
75926;SDS011;64605;48.296;16.416;2022-12-18T00:46:03;24.42;;;14.88;;
75926;SDS011;64605;48.296;16.416;2022-12-18T00:48:29;24.08;;;13.82;;
75926;SDS011;64605;48.296;16.416;2022-12-18T00:50:55;19.55;;;13.05;;
75926;SDS011;64605;48.296;16.416;2022-12-18T00:53:21;24.38;;;14.10;;
75926;SDS011;64605;48.296;16.416;2022-12-18T00:55:47;22.38;;;13.15;;
75926;SDS011;64605;48.296;16.416;2022-12-18T00:58:13;22.40;;;13.63;;
75926;SDS011;64605;48.296;16.416;2022-12-18T01:00:40;27.30;;;15.52;;
75926;SDS011;64605;48.296;16.416;2022-12-18T01:03:06;24.38;;;14.60;;
75926;SDS011;64605;48.296;16.416;2022-12-18T01:05:32;23.08;;;14.00;;
75926;SDS011;64605;48.296;16.416;2022-12-18T01:07:58;22.98;;;15.18;;
75926;SDS011;64605;48.296;16.416;2022-12-18T01:10:24;22.70;;;14.23;;
75926;SDS011;64605;48.296;16.416;2022-12-18T01:12:51;25.40;;;15.00;;
75926;SDS011;64605;48.296;16.416;2022-12-18T01:15:17;27.67;;;14.63;;
75926;SDS011;64605;48.296;16.416;2022-12-18T01:17:43;24.90;;;15.30;;
75926;SDS011;64605;48.296;16.416;2022-12-18T01:20:10;25.40;;;16.08;;
75926;SDS011;64605;48.296;16.416;2022-12-18T01:22:37;22.20;;;13.65;;
75926;SDS011;64605;48.296;16.416;2022-12-18T01:25:04;22.38;;;13.57;;
75926;SDS011;64605;48.296;16.416;2022-12-18T01:27:30;22.65;;;12.93;;
75926;SDS011;64605;48.296;16.416;2022-12-18T01:29:57;26.98;;;16.30;;
75926;SDS011;64605;48.296;16.416;2022-12-18T01:32:23;29.80;;;16.13;;
75926;SDS011;64605;48.296;16.416;2022-12-18T01:34:49;23.67;;;14.30;;
75926;SDS011;64605;48.296;16.416;2022-12-18T01:37:14;24.52;;;14.70;;
75926;SDS011;64605;48.296;16.416;2022-12-18T01:39:40;21.17;;;14.48;;
75926;SDS011;64605;48.296;16.416;2022-12-18T01:42:11;29.83;;;16.33;;
75926;SDS011;64605;48.296;16.416;2022-12-18T01:49:59;31.30;;;19.63;;
75926;SDS011;64605;48.296;16.416;2022-12-18T01:52:28;34.88;;;21.05;;
75926;SDS011;64605;48.296;16.416;2022-12-18T01:54:56;34.70;;;21.20;;
75926;SDS011;64605;48.296;16.416;2022-12-18T01:57:23;36.08;;;22.10;;
75926;SDS011;64605;48.296;16.416;2022-12-18T01:59:50;35.20;;;23.02;;
75926;SDS011;64605;48.296;16.416;2022-12-18T02:02:19;42.67;;;27.08;;
75926;SDS011;64605;48.296;16.416;2022-12-18T02:04:45;45.83;;;28.70;;
75926;SDS011;64605;48.296;16.416;2022-12-18T02:07:24;48.58;;;31.00;;
75926;SDS011;64605;48.296;16.416;2022-12-18T02:10:16;58.00;;;32.40;;
75926;SDS011;64605;48.296;16.416;2022-12-18T02:12:49;98.18;;;44.97;;
75926;SDS011;64605;48.296;16.416;2022-12-18T02:15:36;80.68;;;39.15;;
75926;SDS011;64605;48.296;16.416;2022-12-18T02:18:27;168.30;;;63.30;;
75926;SDS011;64605;48.296;16.416;2022-12-18T02:23:54;456.63;;;151.10;;
75926;SDS011;64605;48.296;16.416;2022-12-18T02:29:09;225.03;;;77.80;;
75926;SDS011;64605;48.296;16.416;2022-12-18T02:31:40;167.15;;;60.72;;
75926;SDS011;64605;48.296;16.416;2022-12-18T02:34:10;183.52;;;63.85;;
75926;SDS011;64605;48.296;16.416;2022-12-18T02:36:38;188.48;;;67.22;;
75926;SDS011;64605;48.296;16.416;2022-12-18T02:39:07;167.98;;;60.75;;
75926;SDS011;64605;48.296;16.416;2022-12-18T02:41:35;74.35;;;32.40;;
75926;SDS011;64605;48.296;16.416;2022-12-18T02:44:07;51.15;;;22.48;;
75926;SDS011;64605;48.296;16.416;2022-12-18T02:46:36;43.10;;;23.05;;
75926;SDS011;64605;48.296;16.416;2022-12-18T02:49:21;36.10;;;21.40;;
75926;SDS011;64605;48.296;16.416;2022-12-18T02:51:58;35.55;;;20.55;;
75926;SDS011;64605;48.296;16.416;2022-12-18T02:54:37;36.30;;;19.63;;
75926;SDS011;64605;48.296;16.416;2022-12-18T02:57:31;38.63;;;20.70;;
75926;SDS011;64605;48.296;16.416;2022-12-18T03:00:12;40.80;;;22.25;;
75926;SDS011;64605;48.296;16.416;2022-12-18T03:05:52;41.97;;;22.55;;
75926;SDS011;64605;48.296;16.416;2022-12-18T03:08:22;45.30;;;24.15;;
75926;SDS011;64605;48.296;16.416;2022-12-18T03:11:02;38.85;;;21.90;;
75926;SDS011;64605;48.296;16.416;2022-12-18T03:13:38;46.85;;;24.10;;
75926;SDS011;64605;48.296;16.416;2022-12-18T03:16:15;41.35;;;23.58;;
75926;SDS011;64605;48.296;16.416;2022-12-18T03:18:51;44.42;;;23.60;;
75926;SDS011;64605;48.296;16.416;2022-12-18T03:21:45;45.03;;;25.63;;
75926;SDS011;64605;48.296;16.416;2022-12-18T03:24:14;39.25;;;21.63;;
75926;SDS011;64605;48.296;16.416;2022-12-18T03:26:43;40.83;;;22.83;;
75926;SDS011;64605;48.296;16.416;2022-12-18T03:29:18;44.75;;;24.40;;
75926;SDS011;64605;48.296;16.416;2022-12-18T03:31:49;42.03;;;22.70;;
75926;SDS011;64605;48.296;16.416;2022-12-18T03:34:21;44.30;;;21.85;;
75926;SDS011;64605;48.296;16.416;2022-12-18T03:36:53;44.35;;;22.38;;
75926;SDS011;64605;48.296;16.416;2022-12-18T03:39:19;42.70;;;21.55;;
75926;SDS011;64605;48.296;16.416;2022-12-18T03:41:52;36.92;;;21.17;;
75926;SDS011;64605;48.296;16.416;2022-12-18T03:44:32;37.30;;;20.88;;
75926;SDS011;64605;48.296;16.416;2022-12-18T03:47:15;43.33;;;22.52;;
75926;SDS011;64605;48.296;16.416;2022-12-18T03:52:27;39.33;;;21.90;;
75926;SDS011;64605;48.296;16.416;2022-12-18T03:55:03;40.10;;;22.02;;
75926;SDS011;64605;48.296;16.416;2022-12-18T03:57:32;42.35;;;21.67;;
75926;SDS011;64605;48.296;16.416;2022-12-18T04:00:03;36.25;;;20.65;;
75926;SDS011;64605;48.296;16.416;2022-12-18T04:02:37;38.90;;;21.67;;
75926;SDS011;64605;48.296;16.416;2022-12-18T04:05:09;36.28;;;18.80;;
75926;SDS011;64605;48.296;16.416;2022-12-18T04:07:36;37.83;;;21.40;;
75926;SDS011;64605;48.296;16.416;2022-12-18T04:10:03;43.53;;;22.48;;
75926;SDS011;64605;48.296;16.416;2022-12-18T04:12:31;36.03;;;20.65;;
75926;SDS011;64605;48.296;16.416;2022-12-18T04:14:57;38.42;;;21.73;;
75926;SDS011;64605;48.296;16.416;2022-12-18T04:17:23;37.50;;;21.42;;
75926;SDS011;64605;48.296;16.416;2022-12-18T04:19:49;36.13;;;19.60;;
75926;SDS011;64605;48.296;16.416;2022-12-18T04:22:15;35.67;;;19.60;;
75926;SDS011;64605;48.296;16.416;2022-12-18T04:24:40;33.95;;;19.95;;
75926;SDS011;64605;48.296;16.416;2022-12-18T04:27:06;33.85;;;19.85;;
75926;SDS011;64605;48.296;16.416;2022-12-18T04:29:32;38.03;;;21.52;;
75926;SDS011;64605;48.296;16.416;2022-12-18T04:31:57;38.28;;;20.50;;
75926;SDS011;64605;48.296;16.416;2022-12-18T04:34:23;38.60;;;20.17;;
75926;SDS011;64605;48.296;16.416;2022-12-18T04:36:49;39.33;;;23.23;;
75926;SDS011;64605;48.296;16.416;2022-12-18T04:39:15;36.47;;;20.40;;
75926;SDS011;64605;48.296;16.416;2022-12-18T04:41:40;35.17;;;19.52;;
75926;SDS011;64605;48.296;16.416;2022-12-18T04:44:06;41.08;;;22.77;;
75926;SDS011;64605;48.296;16.416;2022-12-18T04:46:32;41.78;;;21.38;;
75926;SDS011;64605;48.296;16.416;2022-12-18T04:48:57;37.13;;;20.80;;
75926;SDS011;64605;48.296;16.416;2022-12-18T04:51:23;35.53;;;21.08;;
75926;SDS011;64605;48.296;16.416;2022-12-18T04:53:49;45.65;;;23.20;;
75926;SDS011;64605;48.296;16.416;2022-12-18T04:56:15;43.30;;;22.15;;
75926;SDS011;64605;48.296;16.416;2022-12-18T04:58:42;52.20;;;25.30;;
75926;SDS011;64605;48.296;16.416;2022-12-18T05:01:09;42.75;;;22.40;;
75926;SDS011;64605;48.296;16.416;2022-12-18T05:03:37;40.83;;;22.08;;
75926;SDS011;64605;48.296;16.416;2022-12-18T05:06:03;39.72;;;21.23;;
75926;SDS011;64605;48.296;16.416;2022-12-18T05:08:29;44.05;;;21.70;;
75926;SDS011;64605;48.296;16.416;2022-12-18T05:11:02;49.80;;;24.40;;
75926;SDS011;64605;48.296;16.416;2022-12-18T05:13:29;42.08;;;23.38;;
75926;SDS011;64605;48.296;16.416;2022-12-18T05:15:55;49.38;;;24.73;;
75926;SDS011;64605;48.296;16.416;2022-12-18T05:18:21;48.90;;;24.55;;
75926;SDS011;64605;48.296;16.416;2022-12-18T05:20:50;41.47;;;20.63;;
75926;SDS011;64605;48.296;16.416;2022-12-18T05:23:16;41.40;;;21.95;;
75926;SDS011;64605;48.296;16.416;2022-12-18T05:25:42;39.75;;;21.88;;
75926;SDS011;64605;48.296;16.416;2022-12-18T05:28:15;43.75;;;22.55;;
75926;SDS011;64605;48.296;16.416;2022-12-18T05:30:41;40.65;;;22.08;;
75926;SDS011;64605;48.296;16.416;2022-12-18T05:33:07;42.45;;;22.90;;
75926;SDS011;64605;48.296;16.416;2022-12-18T05:35:33;42.67;;;23.27;;
75926;SDS011;64605;48.296;16.416;2022-12-18T05:37:58;42.30;;;23.27;;
75926;SDS011;64605;48.296;16.416;2022-12-18T05:40:24;49.22;;;24.58;;
75926;SDS011;64605;48.296;16.416;2022-12-18T05:42:50;43.72;;;22.85;;
75926;SDS011;64605;48.296;16.416;2022-12-18T05:45:15;48.42;;;24.27;;
75926;SDS011;64605;48.296;16.416;2022-12-18T05:47:41;51.60;;;24.30;;
75926;SDS011;64605;48.296;16.416;2022-12-18T05:50:07;54.67;;;24.25;;
75926;SDS011;64605;48.296;16.416;2022-12-18T05:52:33;46.58;;;23.80;;
75926;SDS011;64605;48.296;16.416;2022-12-18T05:54:58;46.35;;;22.42;;
75926;SDS011;64605;48.296;16.416;2022-12-18T05:57:24;56.88;;;25.63;;
75926;SDS011;64605;48.296;16.416;2022-12-18T05:59:49;48.65;;;25.30;;
75926;SDS011;64605;48.296;16.416;2022-12-18T06:02:15;48.40;;;25.15;;
75926;SDS011;64605;48.296;16.416;2022-12-18T06:04:41;67.80;;;31.77;;
75926;SDS011;64605;48.296;16.416;2022-12-18T06:07:07;64.22;;;29.80;;
75926;SDS011;64605;48.296;16.416;2022-12-18T06:09:32;70.88;;;34.83;;
75926;SDS011;64605;48.296;16.416;2022-12-18T06:11:58;72.60;;;36.10;;
75926;SDS011;64605;48.296;16.416;2022-12-18T06:14:23;66.53;;;33.88;;
75926;SDS011;64605;48.296;16.416;2022-12-18T06:16:52;74.72;;;37.17;;
75926;SDS011;64605;48.296;16.416;2022-12-18T06:19:17;78.63;;;35.00;;
75926;SDS011;64605;48.296;16.416;2022-12-18T06:21:43;72.72;;;35.53;;
75926;SDS011;64605;48.296;16.416;2022-12-18T06:24:09;77.93;;;37.22;;
75926;SDS011;64605;48.296;16.416;2022-12-18T06:26:36;74.30;;;37.33;;
75926;SDS011;64605;48.296;16.416;2022-12-18T06:29:03;68.20;;;34.75;;
75926;SDS011;64605;48.296;16.416;2022-12-18T06:31:29;66.07;;;31.52;;
75926;SDS011;64605;48.296;16.416;2022-12-18T06:33:55;57.70;;;29.45;;
75926;SDS011;64605;48.296;16.416;2022-12-18T06:36:20;61.00;;;32.60;;
75926;SDS011;64605;48.296;16.416;2022-12-18T06:38:46;61.45;;;32.10;;
75926;SDS011;64605;48.296;16.416;2022-12-18T06:41:13;59.20;;;29.77;;
75926;SDS011;64605;48.296;16.416;2022-12-18T06:43:41;46.05;;;25.73;;
75926;SDS011;64605;48.296;16.416;2022-12-18T06:46:07;51.08;;;24.98;;
75926;SDS011;64605;48.296;16.416;2022-12-18T06:48:33;57.45;;;28.42;;
75926;SDS011;64605;48.296;16.416;2022-12-18T06:50:59;47.78;;;25.27;;
75926;SDS011;64605;48.296;16.416;2022-12-18T06:53:25;50.70;;;26.50;;
75926;SDS011;64605;48.296;16.416;2022-12-18T06:55:51;50.78;;;25.33;;
75926;SDS011;64605;48.296;16.416;2022-12-18T06:58:16;44.78;;;24.13;;
75926;SDS011;64605;48.296;16.416;2022-12-18T07:00:42;54.42;;;26.45;;
75926;SDS011;64605;48.296;16.416;2022-12-18T07:03:08;49.97;;;25.33;;
75926;SDS011;64605;48.296;16.416;2022-12-18T07:05:34;48.92;;;23.67;;
75926;SDS011;64605;48.296;16.416;2022-12-18T07:08:04;47.63;;;24.95;;
75926;SDS011;64605;48.296;16.416;2022-12-18T07:10:29;52.58;;;26.42;;
75926;SDS011;64605;48.296;16.416;2022-12-18T07:12:55;45.88;;;24.85;;
75926;SDS011;64605;48.296;16.416;2022-12-18T07:15:21;53.35;;;25.85;;
75926;SDS011;64605;48.296;16.416;2022-12-18T07:17:46;43.28;;;24.17;;
75926;SDS011;64605;48.296;16.416;2022-12-18T07:20:12;45.65;;;24.38;;
75926;SDS011;64605;48.296;16.416;2022-12-18T07:22:38;45.40;;;24.35;;
75926;SDS011;64605;48.296;16.416;2022-12-18T07:25:03;46.10;;;23.67;;
75926;SDS011;64605;48.296;16.416;2022-12-18T07:27:29;49.38;;;24.55;;
75926;SDS011;64605;48.296;16.416;2022-12-18T07:29:55;47.00;;;25.73;;
75926;SDS011;64605;48.296;16.416;2022-12-18T07:32:21;44.78;;;25.30;;
75926;SDS011;64605;48.296;16.416;2022-12-18T07:34:46;44.03;;;24.65;;
75926;SDS011;64605;48.296;16.416;2022-12-18T07:37:12;48.58;;;25.20;;
75926;SDS011;64605;48.296;16.416;2022-12-18T07:39:37;53.67;;;26.42;;
75926;SDS011;64605;48.296;16.416;2022-12-18T07:42:03;49.78;;;25.52;;
75926;SDS011;64605;48.296;16.416;2022-12-18T07:44:47;47.00;;;26.00;;
75926;SDS011;64605;48.296;16.416;2022-12-18T07:47:13;48.13;;;26.42;;
75926;SDS011;64605;48.296;16.416;2022-12-18T07:49:39;45.03;;;24.95;;
75926;SDS011;64605;48.296;16.416;2022-12-18T07:52:04;46.83;;;25.27;;
75926;SDS011;64605;48.296;16.416;2022-12-18T07:54:30;46.80;;;25.67;;
75926;SDS011;64605;48.296;16.416;2022-12-18T07:56:56;46.42;;;25.63;;
75926;SDS011;64605;48.296;16.416;2022-12-18T07:59:21;47.97;;;27.40;;
75926;SDS011;64605;48.296;16.416;2022-12-18T08:01:47;48.88;;;30.15;;
75926;SDS011;64605;48.296;16.416;2022-12-18T08:04:13;46.25;;;27.83;;
75926;SDS011;64605;48.296;16.416;2022-12-18T08:06:38;44.42;;;28.25;;
75926;SDS011;64605;48.296;16.416;2022-12-18T08:09:04;47.08;;;30.10;;
75926;SDS011;64605;48.296;16.416;2022-12-18T08:11:30;42.10;;;27.80;;
75926;SDS011;64605;48.296;16.416;2022-12-18T08:13:56;42.53;;;28.02;;
75926;SDS011;64605;48.296;16.416;2022-12-18T08:16:22;43.22;;;28.45;;
75926;SDS011;64605;48.296;16.416;2022-12-18T08:18:48;42.22;;;28.55;;
75926;SDS011;64605;48.296;16.416;2022-12-18T08:21:18;42.50;;;27.67;;
75926;SDS011;64605;48.296;16.416;2022-12-18T08:23:49;42.95;;;27.73;;
75926;SDS011;64605;48.296;16.416;2022-12-18T08:26:16;40.20;;;27.08;;
75926;SDS011;64605;48.296;16.416;2022-12-18T08:28:43;39.45;;;27.27;;
75926;SDS011;64605;48.296;16.416;2022-12-18T08:31:09;42.28;;;27.80;;
75926;SDS011;64605;48.296;16.416;2022-12-18T08:33:35;45.30;;;28.42;;
75926;SDS011;64605;48.296;16.416;2022-12-18T08:36:03;40.55;;;27.75;;
75926;SDS011;64605;48.296;16.416;2022-12-18T08:38:29;45.88;;;29.85;;
75926;SDS011;64605;48.296;16.416;2022-12-18T08:41:00;51.47;;;32.35;;
75926;SDS011;64605;48.296;16.416;2022-12-18T08:43:28;47.58;;;32.30;;
75926;SDS011;64605;48.296;16.416;2022-12-18T08:46:14;46.50;;;30.95;;
75926;SDS011;64605;48.296;16.416;2022-12-18T08:48:41;48.08;;;29.63;;
75926;SDS011;64605;48.296;16.416;2022-12-18T08:51:07;45.78;;;27.67;;
75926;SDS011;64605;48.296;16.416;2022-12-18T08:53:34;48.45;;;29.63;;
75926;SDS011;64605;48.296;16.416;2022-12-18T08:56:00;47.17;;;29.65;;
75926;SDS011;64605;48.296;16.416;2022-12-18T08:58:26;49.35;;;30.45;;
75926;SDS011;64605;48.296;16.416;2022-12-18T09:00:52;46.25;;;27.70;;
75926;SDS011;64605;48.296;16.416;2022-12-18T09:03:18;45.13;;;27.27;;
75926;SDS011;64605;48.296;16.416;2022-12-18T09:05:47;43.45;;;27.13;;
75926;SDS011;64605;48.296;16.416;2022-12-18T09:08:13;40.00;;;24.08;;
75926;SDS011;64605;48.296;16.416;2022-12-18T09:10:43;39.03;;;24.15;;
75926;SDS011;64605;48.296;16.416;2022-12-18T09:13:10;41.22;;;23.88;;
75926;SDS011;64605;48.296;16.416;2022-12-18T09:15:54;36.03;;;22.50;;
75926;SDS011;64605;48.296;16.416;2022-12-18T09:18:21;38.63;;;24.38;;
75926;SDS011;64605;48.296;16.416;2022-12-18T09:20:48;38.42;;;23.02;;
75926;SDS011;64605;48.296;16.416;2022-12-18T09:23:16;41.70;;;23.88;;
75926;SDS011;64605;48.296;16.416;2022-12-18T09:25:42;35.88;;;23.10;;
75926;SDS011;64605;48.296;16.416;2022-12-18T09:28:11;40.78;;;24.50;;
75926;SDS011;64605;48.296;16.416;2022-12-18T09:30:40;40.05;;;24.83;;
75926;SDS011;64605;48.296;16.416;2022-12-18T09:33:09;42.53;;;24.30;;
75926;SDS011;64605;48.296;16.416;2022-12-18T09:35:39;44.10;;;26.35;;
75926;SDS011;64605;48.296;16.416;2022-12-18T09:38:06;48.50;;;28.25;;
75926;SDS011;64605;48.296;16.416;2022-12-18T09:40:34;44.97;;;24.55;;
75926;SDS011;64605;48.296;16.416;2022-12-18T09:43:06;44.23;;;25.07;;
75926;SDS011;64605;48.296;16.416;2022-12-18T09:45:40;52.58;;;30.73;;
75926;SDS011;64605;48.296;16.416;2022-12-18T09:48:23;47.85;;;28.00;;
75926;SDS011;64605;48.296;16.416;2022-12-18T09:50:56;40.83;;;26.08;;
75926;SDS011;64605;48.296;16.416;2022-12-18T09:53:25;41.45;;;25.00;;
75926;SDS011;64605;48.296;16.416;2022-12-18T09:55:55;39.85;;;23.33;;
75926;SDS011;64605;48.296;16.416;2022-12-18T09:58:33;39.97;;;25.48;;
75926;SDS011;64605;48.296;16.416;2022-12-18T10:01:13;40.53;;;24.60;;
75926;SDS011;64605;48.296;16.416;2022-12-18T10:03:41;42.13;;;25.75;;
75926;SDS011;64605;48.296;16.416;2022-12-18T10:20:03;38.70;;;22.00;;
75926;SDS011;64605;48.296;16.416;2022-12-18T10:22:53;41.70;;;23.38;;
75926;SDS011;64605;48.296;16.416;2022-12-18T10:28:15;34.35;;;20.63;;
75926;SDS011;64605;48.296;16.416;2022-12-18T10:30:43;39.53;;;23.85;;
75926;SDS011;64605;48.296;16.416;2022-12-18T10:33:11;42.58;;;24.25;;
75926;SDS011;64605;48.296;16.416;2022-12-18T10:35:41;42.65;;;24.95;;
75926;SDS011;64605;48.296;16.416;2022-12-18T10:40:53;39.15;;;23.75;;
75926;SDS011;64605;48.296;16.416;2022-12-18T10:43:41;38.80;;;23.60;;
75926;SDS011;64605;48.296;16.416;2022-12-18T10:51:20;39.83;;;24.63;;
75926;SDS011;64605;48.296;16.416;2022-12-18T10:53:54;44.05;;;23.13;;
75926;SDS011;64605;48.296;16.416;2022-12-18T10:56:40;39.30;;;23.13;;
75926;SDS011;64605;48.296;16.416;2022-12-18T10:59:07;43.28;;;24.20;;
75926;SDS011;64605;48.296;16.416;2022-12-18T11:01:45;42.63;;;23.20;;
75926;SDS011;64605;48.296;16.416;2022-12-18T11:04:13;45.05;;;25.27;;
75926;SDS011;64605;48.296;16.416;2022-12-18T11:07:02;43.83;;;24.75;;
75926;SDS011;64605;48.296;16.416;2022-12-18T11:09:33;39.60;;;22.70;;
75926;SDS011;64605;48.296;16.416;2022-12-18T11:12:13;41.10;;;24.40;;
75926;SDS011;64605;48.296;16.416;2022-12-18T11:14:44;42.17;;;24.60;;
75926;SDS011;64605;48.296;16.416;2022-12-18T11:17:19;45.38;;;26.05;;
75926;SDS011;64605;48.296;16.416;2022-12-18T11:19:54;43.40;;;25.13;;
75926;SDS011;64605;48.296;16.416;2022-12-18T11:22:53;47.70;;;25.52;;
75926;SDS011;64605;48.296;16.416;2022-12-18T11:25:24;46.88;;;25.95;;
75926;SDS011;64605;48.296;16.416;2022-12-18T11:28:00;46.55;;;26.08;;
75926;SDS011;64605;48.296;16.416;2022-12-18T11:30:33;48.75;;;27.05;;
75926;SDS011;64605;48.296;16.416;2022-12-18T11:33:06;47.45;;;28.40;;
75926;SDS011;64605;48.296;16.416;2022-12-18T11:35:47;52.97;;;27.98;;
75926;SDS011;64605;48.296;16.416;2022-12-18T11:38:23;45.15;;;25.75;;
75926;SDS011;64605;48.296;16.416;2022-12-18T11:41:52;45.92;;;25.75;;
75926;SDS011;64605;48.296;16.416;2022-12-18T11:44:26;47.25;;;23.95;;
75926;SDS011;64605;48.296;16.416;2022-12-18T11:46:56;46.30;;;25.67;;
75926;SDS011;64605;48.296;16.416;2022-12-18T11:49:34;45.78;;;23.95;;
75926;SDS011;64605;48.296;16.416;2022-12-18T11:54:43;43.13;;;22.88;;
75926;SDS011;64605;48.296;16.416;2022-12-18T11:59:53;43.55;;;23.90;;
75926;SDS011;64605;48.296;16.416;2022-12-18T12:19:00;41.97;;;23.42;;
75926;SDS011;64605;48.296;16.416;2022-12-18T12:21:52;45.50;;;24.85;;
75926;SDS011;64605;48.296;16.416;2022-12-18T12:24:43;46.45;;;25.85;;
75926;SDS011;64605;48.296;16.416;2022-12-18T12:27:24;42.50;;;23.48;;
75926;SDS011;64605;48.296;16.416;2022-12-18T12:30:09;43.85;;;26.02;;
75926;SDS011;64605;48.296;16.416;2022-12-18T12:35:55;42.33;;;23.23;;
75926;SDS011;64605;48.296;16.416;2022-12-18T12:38:37;46.22;;;23.85;;
75926;SDS011;64605;48.296;16.416;2022-12-18T12:41:12;46.08;;;24.30;;
75926;SDS011;64605;48.296;16.416;2022-12-18T12:43:58;46.38;;;24.58;;
75926;SDS011;64605;48.296;16.416;2022-12-18T12:46:27;48.45;;;24.80;;
75926;SDS011;64605;48.296;16.416;2022-12-18T12:49:03;49.10;;;24.50;;
75926;SDS011;64605;48.296;16.416;2022-12-18T12:51:47;50.50;;;27.05;;
75926;SDS011;64605;48.296;16.416;2022-12-18T12:54:23;48.08;;;25.65;;
75926;SDS011;64605;48.296;16.416;2022-12-18T12:57:02;44.38;;;25.90;;
75926;SDS011;64605;48.296;16.416;2022-12-18T13:08:05;45.92;;;25.08;;
75926;SDS011;64605;48.296;16.416;2022-12-18T13:10:37;42.78;;;24.63;;
75926;SDS011;64605;48.296;16.416;2022-12-18T13:18:33;42.83;;;24.95;;
75926;SDS011;64605;48.296;16.416;2022-12-18T13:31:14;45.50;;;24.63;;
75926;SDS011;64605;48.296;16.416;2022-12-18T13:34:02;45.35;;;25.20;;
75926;SDS011;64605;48.296;16.416;2022-12-18T13:36:42;50.47;;;26.35;;
75926;SDS011;64605;48.296;16.416;2022-12-18T13:39:53;49.40;;;25.25;;
75926;SDS011;64605;48.296;16.416;2022-12-18T13:44:36;53.17;;;26.83;;
75926;SDS011;64605;48.296;16.416;2022-12-18T13:47:24;47.70;;;27.63;;
75926;SDS011;64605;48.296;16.416;2022-12-18T13:49:58;52.65;;;26.20;;
75926;SDS011;64605;48.296;16.416;2022-12-18T13:52:26;48.67;;;27.38;;
75926;SDS011;64605;48.296;16.416;2022-12-18T13:55:14;44.28;;;24.40;;
75926;SDS011;64605;48.296;16.416;2022-12-18T13:57:43;53.30;;;28.45;;
75926;SDS011;64605;48.296;16.416;2022-12-18T14:02:54;56.97;;;28.80;;
75926;SDS011;64605;48.296;16.416;2022-12-18T14:05:24;50.08;;;26.20;;
75926;SDS011;64605;48.296;16.416;2022-12-18T14:07:55;49.22;;;27.05;;
75926;SDS011;64605;48.296;16.416;2022-12-18T14:10:46;52.00;;;27.48;;
75926;SDS011;64605;48.296;16.416;2022-12-18T14:13:16;53.38;;;28.20;;
75926;SDS011;64605;48.296;16.416;2022-12-18T14:15:47;58.63;;;29.23;;
75926;SDS011;64605;48.296;16.416;2022-12-18T14:18:25;58.63;;;28.58;;
75926;SDS011;64605;48.296;16.416;2022-12-18T14:20:56;56.90;;;27.05;;
75926;SDS011;64605;48.296;16.416;2022-12-18T14:25:59;53.08;;;26.23;;
75926;SDS011;64605;48.296;16.416;2022-12-18T14:28:44;50.58;;;26.30;;
75926;SDS011;64605;48.296;16.416;2022-12-18T14:31:17;52.47;;;26.38;;
75926;SDS011;64605;48.296;16.416;2022-12-18T14:33:47;55.97;;;26.60;;
75926;SDS011;64605;48.296;16.416;2022-12-18T14:36:20;55.50;;;27.65;;
75926;SDS011;64605;48.296;16.416;2022-12-18T14:38:49;56.97;;;26.77;;
75926;SDS011;64605;48.296;16.416;2022-12-18T14:41:19;59.08;;;27.92;;
75926;SDS011;64605;48.296;16.416;2022-12-18T14:43:52;58.13;;;28.27;;
75926;SDS011;64605;48.296;16.416;2022-12-18T14:51:29;62.58;;;30.80;;
75926;SDS011;64605;48.296;16.416;2022-12-18T14:54:02;58.97;;;28.13;;
75926;SDS011;64605;48.296;16.416;2022-12-18T14:56:46;58.95;;;26.73;;
75926;SDS011;64605;48.296;16.416;2022-12-18T15:04:33;64.10;;;29.55;;
75926;SDS011;64605;48.296;16.416;2022-12-18T15:07:14;54.63;;;28.13;;
75926;SDS011;64605;48.296;16.416;2022-12-18T15:17:59;62.17;;;30.30;;
75926;SDS011;64605;48.296;16.416;2022-12-18T15:23:14;59.20;;;27.75;;
75926;SDS011;64605;48.296;16.416;2022-12-18T15:25:40;61.37;;;28.47;;
75926;SDS011;64605;48.296;16.416;2022-12-18T15:33:25;69.88;;;31.38;;
75926;SDS011;64605;48.296;16.416;2022-12-18T15:36:02;56.85;;;28.92;;
75926;SDS011;64605;48.296;16.416;2022-12-18T15:38:34;61.88;;;30.45;;
75926;SDS011;64605;48.296;16.416;2022-12-18T15:41:00;59.95;;;29.67;;
75926;SDS011;64605;48.296;16.416;2022-12-18T15:43:29;57.00;;;28.65;;
75926;SDS011;64605;48.296;16.416;2022-12-18T15:46:06;68.20;;;31.10;;
75926;SDS011;64605;48.296;16.416;2022-12-18T15:48:38;58.08;;;28.25;;
75926;SDS011;64605;48.296;16.416;2022-12-18T15:51:09;59.22;;;29.23;;
75926;SDS011;64605;48.296;16.416;2022-12-18T15:53:39;58.75;;;28.67;;
75926;SDS011;64605;48.296;16.416;2022-12-18T15:56:09;60.70;;;29.58;;
75926;SDS011;64605;48.296;16.416;2022-12-18T15:58:54;60.97;;;29.77;;
75926;SDS011;64605;48.296;16.416;2022-12-18T16:01:21;59.05;;;28.15;;
75926;SDS011;64605;48.296;16.416;2022-12-18T16:03:50;59.72;;;28.48;;
75926;SDS011;64605;48.296;16.416;2022-12-18T16:06:16;52.08;;;27.50;;
75926;SDS011;64605;48.296;16.416;2022-12-18T16:08:41;61.05;;;29.88;;
75926;SDS011;64605;48.296;16.416;2022-12-18T16:11:26;55.42;;;27.30;;
75926;SDS011;64605;48.296;16.416;2022-12-18T16:16:51;69.28;;;29.98;;
75926;SDS011;64605;48.296;16.416;2022-12-18T16:19:21;57.03;;;26.83;;
75926;SDS011;64605;48.296;16.416;2022-12-18T16:21:48;54.85;;;27.17;;
75926;SDS011;64605;48.296;16.416;2022-12-18T16:24:16;60.60;;;29.75;;
75926;SDS011;64605;48.296;16.416;2022-12-18T16:26:44;58.40;;;29.92;;
75926;SDS011;64605;48.296;16.416;2022-12-18T16:29:10;64.43;;;29.95;;
75926;SDS011;64605;48.296;16.416;2022-12-18T16:31:36;59.38;;;29.63;;
75926;SDS011;64605;48.296;16.416;2022-12-18T16:37:01;55.03;;;27.92;;
75926;SDS011;64605;48.296;16.416;2022-12-18T16:39:33;62.35;;;30.08;;